Time;durP1;ratioP1;P1;durP2;ratioP2;P2;SDS_P1;SDS_P2;PMS_P1;PMS_P2;Temp;Humidity;BMP_temperature;BMP_pressure;BME280_temperature;BME280_humidity;BME280_pressure;Samples;Min_cycle;Max_cycle;Signal;HPM_P1;HPM_P2
2022/11/01 00:01:07;;;;;;;;;;;;;;;14.73;82.19;101571.78;5032965;28;19940;-55
2022/11/01 00:03:32;;;;;;;;;;;;;;;14.73;82.09;101556.72;5025504;28;19921;-56
2022/11/01 00:05:57;;;;;;;;;;;;;;;14.71;82.13;101553.31;5026116;28;19921;-54
2022/11/01 00:08:22;;;;;;;;;;;;;;;14.71;82.05;101553.31;5032919;28;20037;-55
2022/11/01 00:10:48;;;;;;;;;;;;;;;14.71;82.22;101552.47;5033525;28;19932;-54
2022/11/01 00:13:13;;;;;;;;;;;;;;;14.70;82.14;101564.00;5033260;28;20016;-54
2022/11/01 00:15:38;;;;;;;;;;;;;;;14.70;82.11;101561.38;5033963;28;19966;-56
2022/11/01 00:18:04;;;;;;;;;;;;;;;14.67;82.10;101559.69;5026287;28;19929;-54
2022/11/01 00:20:29;;;;;;;;;;;;;;;14.66;82.13;101559.81;5028768;28;19917;-55
2022/11/01 00:22:54;;;;;;;;;;;;;;;14.66;82.25;101557.16;5035682;28;20003;-55
2022/11/01 00:25:20;;;;;;;;;;;;;;;14.66;82.24;101543.91;5031497;28;19913;-54
2022/11/01 00:27:45;;;;;;;;;;;;;;;14.64;82.19;101541.38;5026575;28;19925;-54
2022/11/01 00:30:10;;;;;;;;;;;;;;;14.64;82.14;101542.22;5027507;28;20339;-54
2022/11/01 00:32:36;;;;;;;;;;;;;;;14.62;82.32;101536.16;5031530;28;20111;-55
2022/11/01 00:35:01;;;;;;;;;;;;;;;14.64;82.30;101531.63;5029188;28;19920;-56
2022/11/01 00:37:27;;;;;;;;;;;;;;;14.66;82.15;101534.19;5029711;28;19967;-54
2022/11/01 00:39:52;;;;;;;;;;;;;;;14.67;82.14;101535.03;5030431;28;19917;-55
2022/11/01 00:42:17;;;;;;;;;;;;;;;14.67;82.13;101535.03;5027950;28;20387;-56
2022/11/01 00:44:43;;;;;;;;;;;;;;;14.67;82.08;101530.56;5031232;28;19932;-55
2022/11/01 00:47:08;;;;;;;;;;;;;;;14.69;82.15;101533.16;5028869;28;19929;-54
2022/11/01 00:49:33;;;;;;;;;;;;;;;14.69;82.11;101525.22;5029351;28;19921;-57
2022/11/01 00:51:59;;;;;;;;;;;;;;;14.70;82.11;101518.97;5028105;28;20430;-54
2022/11/01 00:54:24;;;;;;;;;;;;;;;14.70;81.90;101526.94;5028388;28;19925;-56
2022/11/01 00:56:49;;;;;;;;;;;;;;;14.67;81.80;101517.31;5031606;28;19956;-55
2022/11/01 00:59:14;;;;;;;;;;;;;;;14.68;81.87;101505.81;5022224;28;19921;-54
2022/11/01 01:01:40;;;;;;;;;;;;;;;14.66;81.50;101488.31;5035226;28;20047;-54
2022/11/01 01:04:05;;;;;;;;;;;;;;;14.64;81.35;101481.28;5028640;28;19951;-54
2022/11/01 01:06:30;;;;;;;;;;;;;;;14.66;81.24;101464.47;5024082;28;20011;-54
2022/11/01 01:08:59;;;;;;;;;;;;;;;14.62;81.05;101451.41;5026799;28;19921;-59
2022/11/01 01:11:25;;;;;;;;;;;;;;;14.62;81.01;101458.50;5026095;28;20004;-57
2022/11/01 01:13:50;;;;;;;;;;;;;;;14.59;80.83;101470.16;5027162;28;20003;-56
2022/11/01 01:16:15;;;;;;;;;;;;;;;14.59;80.87;101470.16;5022446;28;19951;-54
2022/11/01 01:18:41;;;;;;;;;;;;;;;14.57;80.89;101465.88;5032515;28;20075;-55
2022/11/01 01:21:06;;;;;;;;;;;;;;;14.55;80.58;101463.34;5025619;28;20007;-56
2022/11/01 01:23:31;;;;;;;;;;;;;;;14.55;80.69;101463.34;5030485;28;20008;-54
2022/11/01 01:25:57;;;;;;;;;;;;;;;14.55;80.61;101465.13;5028240;28;19957;-55
2022/11/01 01:28:22;;;;;;;;;;;;;;;14.52;80.59;101455.59;5029126;28;20372;-54
2022/11/01 01:30:47;;;;;;;;;;;;;;;14.49;80.49;101447.84;5030989;28;19932;-54
2022/11/01 01:33:13;;;;;;;;;;;;;;;14.47;80.31;101441.78;5026746;28;19921;-59
2022/11/01 01:35:38;;;;;;;;;;;;;;;14.47;80.39;101431.19;5026425;28;19925;-54
2022/11/01 01:38:04;;;;;;;;;;;;;;;14.47;80.45;101423.25;5026935;28;19922;-58
2022/11/01 01:40:30;;;;;;;;;;;;;;;14.45;80.31;101415.41;5021397;28;19940;-54
2022/11/01 01:42:55;;;;;;;;;;;;;;;14.43;80.35;101400.59;5021726;28;19940;-56
2022/11/01 01:45:28;;;;;;;;;;;;;;;14.43;80.15;101405.88;5029419;28;19913;-54
2022/11/01 01:47:54;;;;;;;;;;;;;;;14.37;80.23;101419.50;5031624;28;19921;-54
2022/11/01 01:50:31;;;;;;;;;;;;;;;14.31;80.31;101429.50;5021932;28;20345;-56
2022/11/01 01:53:03;;;;;;;;;;;;;;;14.34;80.54;101439.06;5023069;28;20070;-54
2022/11/01 01:55:35;;;;;;;;;;;;;;;14.36;80.24;101423.09;5030645;28;20343;-54
2022/11/01 01:58:00;;;;;;;;;;;;;;;14.31;80.38;101436.63;5028221;28;20007;-54
2022/11/01 02:00:26;;;;;;;;;;;;;;;14.31;80.55;101429.50;5030185;28;20427;-54
2022/11/01 02:02:52;;;;;;;;;;;;;;;14.30;80.34;101411.09;5022827;28;19920;-54
2022/11/01 02:05:28;;;;;;;;;;;;;;;14.28;80.41;101403.25;5024881;28;19921;-56
2022/11/01 02:07:54;;;;;;;;;;;;;;;14.32;80.37;101420.63;5030379;28;19921;-54
2022/11/01 02:10:20;;;;;;;;;;;;;;;14.28;80.35;101392.66;5023254;28;19963;-54
2022/11/01 02:12:47;;;;;;;;;;;;;;;14.24;80.43;101379.69;5030553;28;19921;-55
2022/11/01 02:15:12;;;;;;;;;;;;;;;14.21;80.46;101388.69;5030587;28;19948;-54
2022/11/01 02:17:56;;;;;;;;;;;;;;;14.25;80.48;101399.94;5025285;28;19960;-54
2022/11/01 02:20:36;;;;;;;;;;;;;;;14.21;80.47;101406.38;5019079;28;19932;-56
2022/11/01 02:23:10;;;;;;;;;;;;;;;14.24;80.65;101427.34;5020246;28;19925;-55
2022/11/01 02:25:41;;;;;;;;;;;;;;;14.25;80.33;101437.84;5028460;28;19932;-55
2022/11/01 02:28:07;;;;;;;;;;;;;;;14.30;80.21;101440.22;5028421;28;19974;-54
2022/11/01 02:30:45;;;;;;;;;;;;;;;14.26;80.11;101421.03;5028501;28;19925;-54
2022/11/01 02:33:16;;;;;;;;;;;;;;;14.24;80.19;101412.31;5026459;28;20381;-55
2022/11/01 02:35:55;;;;;;;;;;;;;;;14.21;80.38;101407.22;5023903;28;19922;-54
2022/11/01 02:38:24;;;;;;;;;;;;;;;14.19;80.42;101414.41;5029860;28;20300;-55
2022/11/01 02:41:07;;;;;;;;;;;;;;;14.19;80.63;101409.09;5027951;28;20001;-57
2022/11/01 02:43:51;;;;;;;;;;;;;;;14.18;80.67;101415.34;5023876;28;19976;-54
2022/11/01 02:49:03;;;;;;;;;;;;;;;14.11;80.83;101395.53;5020646;28;19991;-58
2022/11/01 02:51:28;;;;;;;;;;;;;;;14.09;80.87;101376.22;5027274;28;19925;-54
2022/11/01 02:53:54;;;;;;;;;;;;;;;14.10;80.82;101377.94;5025799;28;19932;-54
2022/11/01 02:56:21;;;;;;;;;;;;;;;14.07;80.81;101375.47;5026029;28;19917;-55
2022/11/01 02:58:47;;;;;;;;;;;;;;;14.04;80.62;101379.19;5022154;28;19986;-56
2022/11/01 03:01:17;;;;;;;;;;;;;;;14.00;80.56;101367.06;5021431;28;19935;-58
2022/11/01 03:03:47;;;;;;;;;;;;;;;13.96;80.51;101361.13;5024471;28;20369;-54
2022/11/01 03:06:17;;;;;;;;;;;;;;;13.87;80.71;101354.63;5028998;28;20287;-57
2022/11/01 03:08:45;;;;;;;;;;;;;;;13.84;80.70;101351.31;5027354;28;20384;-57
2022/11/01 03:11:10;;;;;;;;;;;;;;;13.73;80.82;101344.03;5025916;28;19979;-54
2022/11/01 03:13:38;;;;;;;;;;;;;;;13.71;80.72;101345.91;5029973;28;19953;-54
2022/11/01 03:16:08;;;;;;;;;;;;;;;13.67;81.01;101339.13;5023741;28;19922;-54
2022/11/01 03:18:38;;;;;;;;;;;;;;;13.62;81.07;101331.47;5023211;28;19929;-54
2022/11/01 03:21:14;;;;;;;;;;;;;;;13.58;81.39;101329.94;5025183;28;19925;-54
2022/11/01 03:23:49;;;;;;;;;;;;;;;13.61;81.49;101332.41;5023881;28;19925;-54
2022/11/01 03:26:16;;;;;;;;;;;;;;;13.65;81.48;101335.72;5028103;28;20359;-54
2022/11/01 03:28:45;;;;;;;;;;;;;;;13.67;81.34;101339.97;5026327;28;19929;-56
2022/11/01 03:31:12;;;;;;;;;;;;;;;13.71;81.50;101348.56;5027230;28;19920;-54
2022/11/01 03:33:41;;;;;;;;;;;;;;;13.76;81.34;101354.44;5025785;28;19954;-54
2022/11/01 03:36:09;;;;;;;;;;;;;;;13.79;81.34;101356.88;5020413;28;19920;-54
2022/11/01 03:38:37;;;;;;;;;;;;;;;13.80;81.49;101347.16;5028597;28;19975;-55
2022/11/01 03:41:04;;;;;;;;;;;;;;;13.81;81.26;101351.50;5029560;28;19925;-57
2022/11/01 03:43:31;;;;;;;;;;;;;;;13.82;81.46;101348.75;5026734;28;19978;-55
2022/11/01 03:45:56;;;;;;;;;;;;;;;13.81;81.53;101335.63;5029156;28;19913;-54
2022/11/01 03:48:22;;;;;;;;;;;;;;;13.81;81.49;101346.22;5024634;28;19925;-57
2022/11/01 03:50:48;;;;;;;;;;;;;;;13.80;81.69;101339.22;5026444;28;19929;-54
2022/11/01 03:53:14;;;;;;;;;;;;;;;13.79;81.70;101340.16;5031374;28;20300;-54
2022/11/01 03:55:39;;;;;;;;;;;;;;;13.81;81.78;101335.63;5029663;28;19921;-54
2022/11/01 03:58:06;;;;;;;;;;;;;;;13.81;81.57;101335.63;5031814;28;20024;-55
2022/11/01 04:00:33;;;;;;;;;;;;;;;13.83;81.50;101333.75;5032995;28;19921;-54
2022/11/01 04:02:58;;;;;;;;;;;;;;;13.84;81.33;101338.09;5029430;28;20456;-54
2022/11/01 04:05:24;;;;;;;;;;;;;;;13.82;81.38;101327.59;5031114;28;20029;-54
2022/11/01 04:07:52;;;;;;;;;;;;;;;13.81;81.26;101322.41;5029829;28;19928;-56
2022/11/01 04:10:18;;;;;;;;;;;;;;;13.78;81.17;101320.78;5023422;28;19921;-54
2022/11/01 04:12:45;;;;;;;;;;;;;;;13.79;81.25;101319.00;5031644;28;20507;-54
2022/11/01 04:20:50;;;;;;;;;;;;;;;13.80;81.08;101315.41;5027896;28;20300;-57
2022/11/01 04:23:16;;;;;;;;;;;;;;;13.78;81.14;101315.50;5032147;28;19948;-54
2022/11/01 04:25:43;;;;;;;;;;;;;;;13.77;81.03;101318.25;5031778;28;20360;-57
2022/11/01 04:28:08;;;;;;;;;;;;;;;13.75;81.06;101318.34;5025134;28;19925;-54
2022/11/01 04:30:33;;;;;;;;;;;;;;;13.75;81.13;101318.34;5032892;28;19932;-54
2022/11/01 04:32:58;;;;;;;;;;;;;;;13.75;81.18;101321.00;5025130;28;19921;-54
2022/11/01 04:35:24;;;;;;;;;;;;;;;13.75;81.26;101320.13;5030017;28;20254;-57
2022/11/01 04:37:54;;;;;;;;;;;;;;;13.77;81.34;101320.88;5024925;28;19940;-54
2022/11/01 04:40:20;;;;;;;;;;;;;;;13.75;81.18;101312.19;5027474;28;19947;-55
2022/11/01 04:42:45;;;;;;;;;;;;;;;13.75;81.23;101321.00;5032012;28;19964;-54
2022/11/01 04:45:10;;;;;;;;;;;;;;;13.76;81.21;101316.53;5022602;28;19971;-54
2022/11/01 04:47:36;;;;;;;;;;;;;;;13.72;81.14;101314.06;5030232;28;19937;-54
2022/11/01 04:50:01;;;;;;;;;;;;;;;13.71;81.22;101312.38;5026222;28;19918;-54
2022/11/01 04:52:26;;;;;;;;;;;;;;;13.71;81.20;101316.84;5029041;28;19913;-56
2022/11/01 04:54:52;;;;;;;;;;;;;;;13.72;81.13;101321.19;5034626;28;19920;-54
2022/11/01 04:57:23;;;;;;;;;;;;;;;13.70;80.94;101323.91;5031040;28;20331;-54
2022/11/01 04:59:48;;;;;;;;;;;;;;;13.67;80.77;101318.81;5027250;28;19921;-56
2022/11/01 05:02:13;;;;;;;;;;;;;;;13.63;80.96;101305.84;5028631;28;19971;-54
2022/11/01 05:04:39;;;;;;;;;;;;;;;13.60;81.03;101309.56;5029342;28;20323;-54
2022/11/01 05:07:04;;;;;;;;;;;;;;;13.57;81.15;101307.09;5031478;28;19928;-54
2022/11/01 05:09:29;;;;;;;;;;;;;;;13.54;81.18;101296.69;5030050;28;19932;-56
2022/11/01 05:11:55;;;;;;;;;;;;;;;13.51;81.04;101302.19;5029097;28;19933;-56
2022/11/01 05:14:20;;;;;;;;;;;;;;;13.49;81.03;101293.50;5033273;28;19917;-55
2022/11/01 05:16:45;;;;;;;;;;;;;;;13.45;81.05;101291.97;5023479;28;19921;-55
2022/11/01 05:19:10;;;;;;;;;;;;;;;13.43;81.22;101293.88;5027850;28;19921;-55
2022/11/01 05:21:36;;;;;;;;;;;;;;;13.40;81.32;101279.88;5029418;28;19933;-54
2022/11/01 05:24:01;;;;;;;;;;;;;;;13.41;81.35;101286.88;5033653;28;19924;-55
2022/11/01 05:26:26;;;;;;;;;;;;;;;13.42;81.37;101298.31;5024784;28;19947;-54
2022/11/01 05:28:52;;;;;;;;;;;;;;;13.45;81.46;101295.50;5030823;28;20408;-54
2022/11/01 05:31:17;;;;;;;;;;;;;;;13.47;81.36;101295.38;5022986;28;20004;-54
2022/11/01 05:33:42;;;;;;;;;;;;;;;13.47;81.48;101290.94;5027938;28;19933;-54
2022/11/01 05:36:08;;;;;;;;;;;;;;;13.50;81.54;101295.22;5026231;28;19927;-56
2022/11/01 05:38:33;;;;;;;;;;;;;;;13.52;81.44;101296.81;5030460;28;19922;-53
2022/11/01 05:41:00;;;;;;;;;;;;;;;13.55;81.42;101301.03;5027516;28;20000;-54
2022/11/01 05:43:25;;;;;;;;;;;;;;;13.57;81.45;101297.38;5028351;28;22012;-54
2022/11/01 05:45:51;;;;;;;;;;;;;;;13.58;81.30;101290.28;5026029;28;20400;-55
2022/11/01 05:48:16;;;;;;;;;;;;;;;13.60;81.27;101285.75;5027793;28;19929;-54
2022/11/01 05:50:42;;;;;;;;;;;;;;;13.59;81.38;101278.75;5023925;28;20003;-54
2022/11/01 05:53:08;;;;;;;;;;;;;;;13.60;81.37;101280.47;5031469;28;19917;-55
2022/11/01 05:55:34;;;;;;;;;;;;;;;13.61;81.34;101276.88;5024959;28;19932;-56
2022/11/01 05:58:00;;;;;;;;;;;;;;;13.64;81.38;101287.28;5028573;28;19921;-54
2022/11/01 06:00:25;;;;;;;;;;;;;;;13.64;81.28;101282.00;5027962;28;19943;-57
2022/11/01 06:02:50;;;;;;;;;;;;;;;13.65;81.22;101278.41;5025684;28;19921;-54
2022/11/01 06:05:15;;;;;;;;;;;;;;;13.66;81.28;101280.09;5024721;28;20021;-58
2022/11/01 06:07:41;;;;;;;;;;;;;;;13.67;81.32;101286.22;5023241;28;20296;-57
2022/11/01 06:10:06;;;;;;;;;;;;;;;13.67;81.24;101280.94;5029540;28;19936;-54
2022/11/01 06:12:32;;;;;;;;;;;;;;;13.68;81.28;101269.41;5024233;28;19960;-54
2022/11/01 06:14:57;;;;;;;;;;;;;;;13.71;81.34;101275.34;5030593;28;19925;-54
2022/11/01 06:17:23;;;;;;;;;;;;;;;13.75;81.33;101272.53;5024433;28;20120;-54
2022/11/01 06:19:48;;;;;;;;;;;;;;;13.76;81.22;101266.28;5018984;28;19943;-54
2022/11/01 06:22:14;;;;;;;;;;;;;;;13.80;81.15;101271.28;5031544;28;19921;-56
2022/11/01 06:24:39;;;;;;;;;;;;;;;13.84;81.16;101277.25;5028973;28;19925;-54
2022/11/01 06:27:04;;;;;;;;;;;;;;;13.86;81.07;101270.03;5023853;28;19953;-54
2022/11/01 06:29:32;;;;;;;;;;;;;;;13.89;81.06;101274.31;5026608;28;20309;-54
2022/11/01 06:31:57;;;;;;;;;;;;;;;13.92;80.96;101267.03;5027600;28;19923;-54
2022/11/01 06:34:22;;;;;;;;;;;;;;;13.95;81.00;101269.47;5025037;28;19928;-55
2022/11/01 06:36:47;;;;;;;;;;;;;;;13.99;80.91;101275.41;5022510;28;19928;-54
2022/11/01 06:39:13;;;;;;;;;;;;;;;14.01;80.88;101269.06;5021265;28;19932;-54
2022/11/01 06:41:38;;;;;;;;;;;;;;;14.03;80.83;101261.88;5026914;28;19932;-57
2022/11/01 06:44:03;;;;;;;;;;;;;;;14.07;80.76;101272.28;5028859;28;19921;-54
2022/11/01 06:46:29;;;;;;;;;;;;;;;14.11;80.54;101273.78;5026645;28;19937;-55
2022/11/01 06:48:54;;;;;;;;;;;;;;;14.14;80.43;101271.78;5026802;28;19986;-54
2022/11/01 06:51:20;;;;;;;;;;;;;;;14.16;80.29;101271.69;5021939;28;19917;-55
2022/11/01 06:53:45;;;;;;;;;;;;;;;14.19;80.15;101279.41;5021191;28;19964;-56
2022/11/01 06:56:10;;;;;;;;;;;;;;;14.21;80.06;101284.63;5015564;28;19925;-54
2022/11/01 06:58:35;;;;;;;;;;;;;;;14.23;80.08;101283.56;5026473;28;19928;-54
2022/11/01 07:01:01;;;;;;;;;;;;;;;14.23;80.04;101273.00;5027255;28;20265;-57
2022/11/01 07:03:27;;;;;;;;;;;;;;;14.25;79.97;101275.53;5026594;28;20478;-55
2022/11/01 07:05:52;;;;;;;;;;;;;;;14.26;79.99;101277.22;5023561;28;19929;-54
2022/11/01 07:08:18;;;;;;;;;;;;;;;14.29;79.79;101288.47;5021229;28;19925;-54
2022/11/01 07:10:43;;;;;;;;;;;;;;;14.31;79.66;101302.44;5025129;28;19969;-55
2022/11/01 07:13:09;;;;;;;;;;;;;;;14.37;79.69;101303.00;5024574;28;19929;-55
2022/11/01 07:15:35;;;;;;;;;;;;;;;14.38;79.38;101302.91;5026081;28;20395;-56
2022/11/01 07:18:01;;;;;;;;;;;;;;;14.41;79.35;101297.41;5021542;28;19925;-54
2022/11/01 07:20:27;;;;;;;;;;;;;;;14.42;79.10;101292.97;5025965;28;24190;-55
2022/11/01 07:23:03;;;;;;;;;;;;;;;14.45;79.16;101292.75;5031497;28;19932;-55
2022/11/01 07:25:29;;;;;;;;;;;;;;;14.47;79.03;101285.56;5028877;28;21656;-54
2022/11/01 07:27:55;;;;;;;;;;;;;;;14.52;78.95;101291.41;5030009;28;19921;-54
2022/11/01 07:30:21;;;;;;;;;;;;;;;14.54;78.79;101278.94;5015179;28;19927;-55
2022/11/01 07:32:46;;;;;;;;;;;;;;;14.59;78.72;101290.06;5023005;28;19936;-55
2022/11/01 07:35:12;;;;;;;;;;;;;;;14.63;78.60;101275.66;5021874;28;19928;-60
2022/11/01 07:37:37;;;;;;;;;;;;;;;14.68;78.45;101282.50;5023752;28;20021;-56
2022/11/01 07:40:03;;;;;;;;;;;;;;;14.71;78.32;101282.28;5015371;28;19925;-55
2022/11/01 07:42:28;;;;;;;;;;;;;;;14.75;78.16;101294.34;5015839;28;19940;-56
2022/11/01 07:44:54;;;;;;;;;;;;;;;14.80;78.09;101281.66;5018590;28;19925;-54
2022/11/01 07:47:19;;;;;;;;;;;;;;;14.84;77.88;101282.28;5015799;28;19929;-57
2022/11/01 07:49:44;;;;;;;;;;;;;;;14.85;77.69;101276.03;5008405;28;19925;-56
2022/11/01 07:52:10;;;;;;;;;;;;;;;14.86;77.58;101270.66;5028960;28;20010;-56
2022/11/01 07:54:35;;;;;;;;;;;;;;;14.90;77.76;101266.00;5028957;28;20292;-54
2022/11/01 07:57:01;;;;;;;;;;;;;;;14.90;77.32;101258.06;5025168;28;19975;-54
2022/11/01 07:59:26;;;;;;;;;;;;;;;14.93;77.67;101263.16;5024080;28;19932;-55
2022/11/01 08:01:51;;;;;;;;;;;;;;;14.99;77.64;101275.13;5020631;28;19974;-58
2022/11/01 08:04:16;;;;;;;;;;;;;;;15.01;77.34;101270.56;5030425;28;20393;-58
2022/11/01 08:06:42;;;;;;;;;;;;;;;15.04;77.14;101268.56;5018472;28;19925;-55
2022/11/01 08:09:08;;;;;;;;;;;;;;;15.09;77.16;101265.59;5028945;28;19995;-54
2022/11/01 08:11:33;;;;;;;;;;;;;;;15.12;77.09;101265.38;5025344;28;20000;-54
2022/11/01 08:13:58;;;;;;;;;;;;;;;15.15;76.69;101273.13;5030555;28;19917;-55
2022/11/01 08:16:23;;;;;;;;;;;;;;;15.18;76.56;101270.28;5016069;28;19947;-54
2022/11/01 08:18:49;;;;;;;;;;;;;;;15.21;76.51;101259.44;5023138;28;19928;-57
2022/11/01 08:21:17;;;;;;;;;;;;;;;15.24;76.41;101259.22;5022769;28;20824;-55
2022/11/01 08:23:45;;;;;;;;;;;;;;;15.30;76.36;101273.03;5017824;28;20006;-57
2022/11/01 08:26:11;;;;;;;;;;;;;;;15.34;76.07;101279.81;5019410;28;19921;-54
2022/11/01 08:28:37;;;;;;;;;;;;;;;15.35;75.80;101276.22;5026466;28;19944;-55
2022/11/01 08:31:06;;;;;;;;;;;;;;;15.35;75.51;101285.00;5023975;28;19928;-55
2022/11/01 08:33:31;;;;;;;;;;;;;;;15.39;75.83;101285.63;5025973;28;19917;-54
2022/11/01 08:35:56;;;;;;;;;;;;;;;15.43;75.53;101288.94;5029353;28;19917;-57
2022/11/01 08:38:22;;;;;;;;;;;;;;;15.46;75.43;101304.63;5023885;28;20466;-54
2022/11/01 08:40:47;;;;;;;;;;;;;;;15.43;75.25;101305.69;5020113;28;19932;-59
2022/11/01 08:43:12;;;;;;;;;;;;;;;15.38;75.19;101300.69;5018455;28;20348;-54
2022/11/01 08:45:38;;;;;;;;;;;;;;;15.33;74.86;101305.47;5019598;28;22250;-54
2022/11/01 08:48:04;;;;;;;;;;;;;;;15.29;74.65;101293.38;5027949;28;20438;-56
2022/11/01 08:50:30;;;;;;;;;;;;;;;15.31;74.91;101301.22;5024520;28;19982;-59
2022/11/01 08:52:55;;;;;;;;;;;;;;;15.30;74.64;101307.50;5026144;28;20395;-55
2022/11/01 08:55:21;;;;;;;;;;;;;;;15.28;74.77;101323.47;5022120;28;19925;-54
2022/11/01 08:57:47;;;;;;;;;;;;;;;15.31;74.72;101327.75;5020071;28;19931;-54
2022/11/01 09:00:12;;;;;;;;;;;;;;;15.32;74.38;101321.50;5025935;28;19924;-54
2022/11/01 09:02:38;;;;;;;;;;;;;;;15.32;74.37;101324.16;5028888;28;19935;-56
2022/11/01 09:05:05;;;;;;;;;;;;;;;15.32;74.39;101316.19;5020500;28;19929;-54
2022/11/01 09:07:32;;;;;;;;;;;;;;;15.30;74.00;101347.25;5014952;28;20045;-56
2022/11/01 09:09:57;;;;;;;;;;;;;;;15.30;74.25;101334.00;5020537;28;19925;-55
2022/11/01 09:12:22;;;;;;;;;;;;;;;15.31;74.10;101333.06;5026471;28;19925;-55
2022/11/01 09:14:48;;;;;;;;;;;;;;;15.29;73.84;101324.34;5015626;28;20037;-54
2022/11/01 09:17:13;;;;;;;;;;;;;;;15.27;73.74;101320.94;5016115;28;20308;-57
2022/11/01 09:19:39;;;;;;;;;;;;;;;15.30;73.76;101331.34;5021056;28;19925;-56
2022/11/01 09:22:04;;;;;;;;;;;;;;;15.35;73.69;101337.19;5018619;28;19971;-56
2022/11/01 09:24:30;;;;;;;;;;;;;;;15.45;73.63;101337.38;5017702;28;19925;-54
2022/11/01 09:26:55;;;;;;;;;;;;;;;15.48;73.34;101343.34;5020059;28;19965;-54
2022/11/01 09:29:20;;;;;;;;;;;;;;;15.52;73.41;101339.50;5020981;28;19925;-57
2022/11/01 09:31:49;;;;;;;;;;;;;;;15.57;73.31;101335.69;5019538;28;20024;-60
2022/11/01 09:34:14;;;;;;;;;;;;;;;15.57;73.02;101325.09;5013510;28;19929;-55
2022/11/01 09:36:39;;;;;;;;;;;;;;;15.54;73.13;101319.03;5012836;28;20687;-55
2022/11/01 09:39:05;;;;;;;;;;;;;;;15.53;73.00;101311.19;5018625;28;19921;-54
2022/11/01 09:41:31;;;;;;;;;;;;;;;15.49;73.28;101305.28;5019234;28;19921;-54
2022/11/01 09:43:58;;;;;;;;;;;;;;;15.49;73.29;101305.28;5018555;28;19929;-59
2022/11/01 09:46:26;;;;;;;;;;;;;;;15.49;73.33;101305.28;5023684;28;19917;-55
2022/11/01 09:48:52;;;;;;;;;;;;;;;15.49;73.34;101299.97;5019041;28;20016;-55
2022/11/01 09:51:20;;;;;;;;;;;;;;;15.51;73.53;101300.69;5010678;28;20288;-57
2022/11/01 09:53:47;;;;;;;;;;;;;;;15.57;73.53;101304.72;5015821;28;20693;-56
2022/11/01 09:56:22;;;;;;;;;;;;;;;15.60;73.40;101301.00;5017537;28;19971;-55
2022/11/01 09:59:01;;;;;;;;;;;;;;;15.66;73.34;101305.84;5017086;28;19925;-57
2022/11/01 10:01:37;;;;;;;;;;;;;;;15.68;73.09;101315.44;5004087;28;19932;-58
2022/11/01 10:04:19;;;;;;;;;;;;;;;15.74;73.06;101316.78;5000186;28;19925;-56
2022/11/01 10:06:47;;;;;;;;;;;;;;;15.78;72.99;101309.47;5003162;28;19924;-60
2022/11/01 10:09:15;;;;;;;;;;;;;;;15.81;73.02;101304.78;5001735;28;20608;-58
2022/11/01 10:11:41;;;;;;;;;;;;;;;15.88;72.90;101309.69;5005515;28;19925;-60
2022/11/01 10:14:22;;;;;;;;;;;;;;;15.92;72.64;101303.22;5004030;28;19951;-59
2022/11/01 10:17:10;;;;;;;;;;;;;;;15.94;72.47;101314.56;5005419;28;20293;-54
2022/11/01 10:19:36;;;;;;;;;;;;;;;15.98;72.18;101321.34;4968776;28;19932;-54
2022/11/01 10:22:09;;;;;;;;;;;;;;;15.98;72.07;101321.34;5003613;28;19929;-60
2022/11/01 10:24:42;;;;;;;;;;;;;;;15.98;72.23;101316.03;4998199;28;19917;-54
2022/11/01 10:27:13;;;;;;;;;;;;;;;15.97;72.02;101319.63;5006922;28;19925;-58
2022/11/01 10:29:58;;;;;;;;;;;;;;;15.96;72.10;101321.47;5008329;28;20341;-54
2022/11/01 10:32:26;;;;;;;;;;;;;;;15.95;72.05;101317.09;5002657;28;19917;-54
2022/11/01 10:34:52;;;;;;;;;;;;;;;15.93;72.07;101313.72;4997515;28;19925;-59
2022/11/01 10:37:27;;;;;;;;;;;;;;;15.91;72.21;101312.13;4999238;28;19928;-57
2022/11/01 10:39:55;;;;;;;;;;;;;;;15.88;72.12;101304.38;4999687;28;19944;-56
2022/11/01 10:42:21;;;;;;;;;;;;;;;15.85;72.07;101306.28;5004439;28;19921;-56
2022/11/01 10:44:54;;;;;;;;;;;;;;;15.86;72.46;101312.47;5016780;28;20374;-61
2022/11/01 10:47:20;;;;;;;;;;;;;;;15.85;72.54;101316.06;5016106;28;19924;-56
2022/11/01 10:49:50;;;;;;;;;;;;;;;15.90;72.58;101334.31;5018744;28;20438;-57
2022/11/01 10:52:18;;;;;;;;;;;;;;;15.91;72.64;101339.50;5017659;28;19921;-54
2022/11/01 10:54:45;;;;;;;;;;;;;;;15.93;72.36;101339.41;5020186;28;19932;-55
2022/11/01 10:57:26;;;;;;;;;;;;;;;15.93;72.38;101334.94;5025361;28;19921;-58
2022/11/01 10:59:53;;;;;;;;;;;;;;;15.95;72.21;101327.72;5029806;28;19921;-54
2022/11/01 11:02:23;;;;;;;;;;;;;;;15.98;72.15;101326.66;5025220;28;20020;-59
2022/11/01 11:04:49;;;;;;;;;;;;;;;16.04;72.05;101325.34;5031004;28;19925;-56
2022/11/01 11:07:15;;;;;;;;;;;;;;;16.08;71.91;101326.84;5021837;28;20643;-55
2022/11/01 11:09:41;;;;;;;;;;;;;;;16.13;72.27;101327.38;5026894;28;19921;-57
2022/11/01 11:12:17;;;;;;;;;;;;;;;16.19;72.03;101320.75;5029010;28;19936;-58
2022/11/01 11:14:44;;;;;;;;;;;;;;;16.25;71.82;101333.59;5020637;28;19929;-55
2022/11/01 11:17:16;;;;;;;;;;;;;;;16.29;71.70;101329.75;5013346;28;19932;-56
2022/11/01 11:19:44;;;;;;;;;;;;;;;16.31;71.60;101327.84;5017297;28;20380;-56
2022/11/01 11:22:11;;;;;;;;;;;;;;;16.34;71.86;101332.94;5013987;28;20299;-55
2022/11/01 11:24:38;;;;;;;;;;;;;;;16.33;71.70;101333.06;5007008;28;20051;-54
2022/11/01 11:27:10;;;;;;;;;;;;;;;16.30;71.59;101326.13;5017643;28;20427;-57
2022/11/01 11:29:47;;;;;;;;;;;;;;;16.30;71.85;101321.69;5021874;28;20401;-55
2022/11/01 11:32:37;;;;;;;;;;;;;;;16.30;71.98;101310.19;5020567;28;19980;-54
2022/11/01 11:35:15;;;;;;;;;;;;;;;16.29;71.88;101308.50;5011050;28;19921;-55
2022/11/01 11:37:51;;;;;;;;;;;;;;;16.30;72.13;101307.53;5017819;28;19921;-54
2022/11/01 11:40:23;;;;;;;;;;;;;;;16.33;71.95;101315.28;5020205;28;19925;-58
2022/11/01 11:42:49;;;;;;;;;;;;;;;16.36;71.85;101303.59;5022886;28;19921;-54
2022/11/01 11:45:17;;;;;;;;;;;;;;;16.40;71.91;101307.72;5021082;28;20645;-54
2022/11/01 11:47:43;;;;;;;;;;;;;;;16.42;71.95;101303.16;5012480;28;19932;-58
2022/11/01 11:50:18;;;;;;;;;;;;;;;16.43;71.77;101300.38;5013003;28;19930;-57
2022/11/01 11:52:44;;;;;;;;;;;;;;;16.46;71.90;101307.28;5025077;28;20506;-55
2022/11/01 11:55:26;;;;;;;;;;;;;;;16.48;71.62;101316.00;5030021;28;19921;-56
2022/11/01 11:57:53;;;;;;;;;;;;;;;16.48;71.77;101315.13;5023681;28;20040;-57
2022/11/01 12:00:23;;;;;;;;;;;;;;;16.45;71.75;101325.00;5022898;28;20282;-56
2022/11/01 12:02:49;;;;;;;;;;;;;;;16.43;71.85;101321.63;5025298;28;19968;-51
2022/11/01 12:05:16;;;;;;;;;;;;;;;16.44;71.77;101317.16;5027411;28;19932;-61
2022/11/01 12:07:44;;;;;;;;;;;;;;;16.41;71.73;101326.19;5021711;28;20368;-59
2022/11/01 12:10:28;;;;;;;;;;;;;;;16.42;71.90;101317.25;5017190;28;19939;-53
2022/11/01 12:12:55;;;;;;;;;;;;;;;16.41;71.94;101331.50;5015062;28;20388;-59
2022/11/01 12:15:27;;;;;;;;;;;;;;;16.37;71.87;101340.69;5008622;28;19947;-55
2022/11/01 12:17:53;;;;;;;;;;;;;;;16.37;72.06;101338.03;5020228;28;19952;-51
2022/11/01 12:20:19;;;;;;;;;;;;;;;16.36;72.08;101330.16;5018149;28;19971;-51
2022/11/01 12:22:47;;;;;;;;;;;;;;;16.34;72.18;101330.28;5022516;28;19925;-53
2022/11/01 12:25:15;;;;;;;;;;;;;;;16.34;72.18;101332.94;5017010;28;19925;-57
2022/11/01 12:27:45;;;;;;;;;;;;;;;16.31;72.23;101338.44;5009939;28;20020;-50
2022/11/01 12:30:15;;;;;;;;;;;;;;;16.27;72.39;101334.31;5013076;28;19921;-54
2022/11/01 12:32:43;;;;;;;;;;;;;;;16.26;72.49;101335.31;5013348;28;19925;-50
2022/11/01 12:35:15;;;;;;;;;;;;;;;16.25;72.74;101326.47;5022750;28;20056;-50
2022/11/01 12:37:43;;;;;;;;;;;;;;;16.26;72.63;101325.53;5016592;28;20022;-54
2022/11/01 12:40:22;;;;;;;;;;;;;;;16.26;72.93;101332.66;5024308;28;20407;-51
2022/11/01 12:42:56;;;;;;;;;;;;;;;16.25;72.75;101323.00;5025793;28;19921;-53
2022/11/01 12:45:24;;;;;;;;;;;;;;;16.26;72.89;101322.03;5014366;28;20304;-51